createdAt,value
2022-07-29T04:31:00.856Z,696.00
2022-07-29T04:32:00.678Z,696.00
2022-07-29T04:33:00.668Z,700.00
2022-07-29T04:34:00.667Z,696.00
2022-07-29T04:35:00.644Z,696.00
2022-07-29T04:36:00.625Z,696.00
2022-07-29T04:37:00.614Z,696.00
2022-07-29T04:38:00.596Z,700.00
2022-07-29T04:39:00.596Z,704.00
2022-07-29T04:40:00.575Z,708.00
2022-07-29T04:41:00.565Z,716.00
2022-07-29T04:42:00.543Z,720.00
2022-07-29T04:43:00.599Z,724.00
2022-07-29T04:44:07.604Z,732.00
2022-07-29T04:45:01.292Z,740.00
2022-07-29T04:46:00.509Z,744.00
2022-07-29T04:47:00.485Z,752.00
2022-07-29T04:48:00.467Z,756.00
2022-07-29T04:49:00.612Z,748.00
2022-07-29T04:50:00.444Z,748.00
2022-07-29T04:51:00.443Z,748.00
2022-07-29T04:52:00.470Z,752.00
2022-07-29T04:53:00.418Z,760.00
2022-07-29T04:54:00.421Z,772.00
2022-07-29T04:55:00.387Z,792.00
2022-07-29T04:56:00.391Z,808.00
2022-07-29T04:57:00.356Z,820.00
2022-07-29T04:58:00.335Z,836.00
2022-07-29T04:59:00.336Z,868.00
2022-07-29T05:00:00.325Z,904.00
2022-07-29T05:01:00.308Z,944.00
2022-07-29T05:02:00.344Z,996.00
2022-07-29T05:03:00.406Z,1052.00
2022-07-29T05:04:00.801Z,1104.00
2022-07-29T05:05:00.254Z,1152.00
2022-07-29T05:06:00.235Z,1184.00
2022-07-29T05:07:00.227Z,1212.00
2022-07-29T05:08:00.216Z,1248.00
2022-07-29T05:09:00.217Z,1276.00
2022-07-29T05:10:00.212Z,1284.00
2022-07-29T05:11:11.663Z,1288.00
2022-07-29T05:12:01.164Z,1292.00
2022-07-29T05:13:00.145Z,1312.00
2022-07-29T05:14:00.185Z,1360.00
2022-07-29T05:15:00.136Z,1428.00
2022-07-29T05:16:00.187Z,1512.00
2022-07-29T05:17:00.093Z,1580.00
2022-07-29T05:18:00.085Z,1628.00
2022-07-29T05:19:00.054Z,1660.00
2022-07-29T05:20:00.061Z,1692.00
2022-07-29T05:21:00.045Z,1724.00
2022-07-29T05:22:00.025Z,1748.00
2022-07-29T05:23:00.004Z,1744.00
2022-07-29T05:23:59.985Z,1724.00
2022-07-29T05:25:01.461Z,1676.00
2022-07-29T05:25:59.967Z,1612.00
2022-07-29T05:26:59.954Z,1532.00
2022-07-29T05:27:59.975Z,1444.00
2022-07-29T05:28:59.924Z,1348.00
2022-07-29T05:29:59.956Z,1268.00
2022-07-29T05:30:59.971Z,1216.00
2022-07-29T05:31:59.874Z,1188.00
2022-07-29T05:32:59.871Z,1196.00
2022-07-29T05:33:59.854Z,1228.00
2022-07-29T05:34:59.860Z,1284.00
2022-07-29T05:36:00.747Z,1360.00
2022-07-29T05:36:59.812Z,1448.00
2022-07-29T05:37:59.803Z,1540.00
2022-07-29T05:38:59.793Z,1652.00
2022-07-29T05:39:59.793Z,1776.00
2022-07-29T05:40:59.783Z,1912.00
2022-07-29T05:41:59.744Z,2048.00
2022-07-29T05:42:59.746Z,2144.00
2022-07-29T05:43:59.722Z,2204.00
2022-07-29T05:44:59.714Z,2236.00
2022-07-29T05:45:59.736Z,2264.00
2022-07-29T05:46:59.677Z,2292.00
2022-07-29T05:47:59.684Z,2328.00
2022-07-29T05:48:59.692Z,2368.00
2022-07-29T05:49:59.654Z,2400.00
2022-07-29T05:50:59.653Z,2424.00
2022-07-29T05:51:59.626Z,2464.00
2022-07-29T05:52:59.593Z,2512.00
2022-07-29T05:54:00.584Z,2552.00
2022-07-29T05:54:59.574Z,2584.00
2022-07-29T05:55:59.556Z,2584.00
2022-07-29T05:56:59.591Z,2588.00
2022-07-29T05:57:59.602Z,2596.00
2022-07-29T05:58:59.514Z,2596.00
2022-07-29T05:59:59.524Z,2592.00
2022-07-29T06:00:59.534Z,2556.00
2022-07-29T06:01:59.548Z,2504.00
2022-07-29T06:02:59.483Z,2436.00
2022-07-29T06:03:59.493Z,2396.00
2022-07-29T06:04:59.492Z,2356.00
2022-07-29T06:05:59.422Z,2236.00
2022-07-29T06:06:59.403Z,2144.00
2022-07-29T06:07:59.404Z,2120.00
2022-07-29T06:08:59.383Z,2052.00
2022-07-29T06:10:00.383Z,2020.00
2022-07-29T06:10:59.355Z,2084.00
2022-07-29T06:11:59.424Z,2236.00
2022-07-29T06:12:59.324Z,1968.00
2022-07-29T06:13:59.326Z,1960.00
2022-07-29T06:14:59.314Z,1964.00
2022-07-29T06:15:59.356Z,1976.00
2022-07-29T06:16:59.274Z,1996.00
2022-07-29T06:18:01.501Z,2060.00
2022-07-29T06:18:59.252Z,2144.00
2022-07-29T06:19:59.246Z,2468.00
2022-07-29T06:20:59.257Z,2256.00
2022-07-29T06:21:59.212Z,2136.00
2022-07-29T06:22:59.247Z,2136.00
2022-07-29T06:23:59.186Z,2156.00
2022-07-29T06:24:59.186Z,2188.00
2022-07-29T06:25:59.155Z,2260.00
2022-07-29T06:26:59.209Z,2348.00
2022-07-29T06:27:59.132Z,2468.00
2022-07-29T06:28:59.112Z,2612.00
2022-07-29T06:29:59.131Z,2736.00
2022-07-29T06:30:59.186Z,2836.00
2022-07-29T06:31:59.092Z,2912.00
2022-07-29T06:32:59.269Z,2984.00
2022-07-29T06:33:59.117Z,3032.00
2022-07-29T06:35:24.464Z,3060.00
2022-07-29T06:36:00.032Z,3064.00
2022-07-29T06:36:59.005Z,3084.00
2022-07-29T06:37:59.842Z,3192.00
2022-07-29T06:38:58.983Z,3360.00
2022-07-29T06:39:59.634Z,3596.00
2022-07-29T06:40:58.953Z,3876.00
2022-07-29T06:41:58.954Z,4140.00
2022-07-29T06:42:58.931Z,4312.00
2022-07-29T06:43:58.924Z,4396.00
2022-07-29T06:44:58.913Z,4372.00
2022-07-29T06:45:58.948Z,4268.00
2022-07-29T06:46:58.888Z,4132.00
2022-07-29T06:47:58.873Z,4008.00
2022-07-29T06:48:58.892Z,3948.00
2022-07-29T06:49:58.862Z,3940.00
2022-07-29T06:50:58.823Z,3952.00
2022-07-29T06:51:58.812Z,3996.00
2022-07-29T06:52:58.825Z,4076.00
2022-07-29T06:54:02.850Z,4152.00
2022-07-29T06:54:58.773Z,4216.00
2022-07-29T06:55:58.781Z,4268.00
2022-07-29T06:56:58.742Z,4304.00
2022-07-29T06:57:58.735Z,4324.00
2022-07-29T06:58:58.732Z,4304.00
2022-07-29T06:59:58.710Z,4236.00
2022-07-29T07:00:58.734Z,4152.00
2022-07-29T07:01:58.732Z,4044.00
2022-07-29T07:02:58.663Z,3952.00
2022-07-29T07:03:58.660Z,3876.00
2022-07-29T07:04:58.642Z,3776.00
2022-07-29T07:05:58.642Z,3624.00
2022-07-29T07:06:58.612Z,3444.00
2022-07-29T07:07:58.646Z,3232.00
2022-07-29T07:08:58.589Z,3008.00
2022-07-29T07:09:58.581Z,2812.00
2022-07-29T07:10:58.582Z,2644.00
2022-07-29T07:11:58.572Z,2528.00
2022-07-29T07:12:58.532Z,2460.00
2022-07-29T07:14:03.041Z,2448.00
2022-07-29T07:14:59.534Z,2472.00
2022-07-29T07:15:58.525Z,2504.00
2022-07-29T07:16:58.514Z,2532.00
2022-07-29T07:17:58.470Z,2528.00
2022-07-29T07:18:58.456Z,2500.00
2022-07-29T07:19:58.442Z,2476.00
2022-07-29T07:20:58.431Z,2472.00
2022-07-29T07:21:58.411Z,2496.00
2022-07-29T07:22:58.400Z,2536.00
2022-07-29T07:23:58.396Z,2596.00
2022-07-29T07:24:58.373Z,2672.00
2022-07-29T07:25:58.373Z,2776.00
2022-07-29T07:26:58.341Z,2908.00
2022-07-29T07:27:58.337Z,3072.00
2022-07-29T07:28:58.332Z,3248.00
2022-07-29T07:29:58.319Z,3432.00
2022-07-29T07:30:58.302Z,3612.00
2022-07-29T07:32:00.912Z,3756.00
2022-07-29T07:32:58.261Z,3888.00
2022-07-29T07:33:58.266Z,4012.00
2022-07-29T07:34:58.241Z,4124.00
2022-07-29T07:35:58.242Z,4232.00
2022-07-29T07:36:58.216Z,4300.00
2022-07-29T07:37:58.202Z,4300.00
2022-07-29T07:38:58.188Z,4272.00
2022-07-29T07:39:58.184Z,4236.00
2022-07-29T07:40:58.171Z,4204.00
2022-07-29T07:41:58.151Z,4156.00
2022-07-29T07:42:58.137Z,4100.00
2022-07-29T07:43:58.123Z,4072.00
2022-07-29T07:45:13.109Z,4124.00
2022-07-29T07:45:59.188Z,4220.00
2022-07-29T07:46:58.090Z,4328.00
2022-07-29T07:47:59.072Z,4416.00
2022-07-29T07:48:58.082Z,4452.00
2022-07-29T07:49:58.053Z,4460.00
2022-07-29T07:50:58.051Z,4452.00
2022-07-29T07:51:58.011Z,4420.00
2022-07-29T07:52:58.003Z,4340.00
2022-07-29T07:53:57.993Z,4224.00
2022-07-29T07:54:57.981Z,4100.00
2022-07-29T07:56:10.354Z,3932.00
2022-07-29T07:56:58.956Z,3736.00
2022-07-29T07:57:57.932Z,3556.00
2022-07-29T07:58:57.931Z,3428.00
2022-07-29T07:59:57.903Z,3372.00
2022-07-29T08:00:57.984Z,3332.00
2022-07-29T08:01:58.011Z,3300.00
2022-07-29T08:02:57.911Z,3296.00
2022-07-29T08:03:57.851Z,3312.00
2022-07-29T08:04:57.846Z,3324.00
2022-07-29T08:05:57.842Z,3312.00
2022-07-29T08:06:57.837Z,3296.00
2022-07-29T08:07:57.802Z,3272.00
2022-07-29T08:09:19.492Z,3240.00
2022-07-29T08:09:58.772Z,3204.00
2022-07-29T08:10:57.772Z,3148.00
2022-07-29T08:11:57.793Z,3076.00
2022-07-29T08:12:57.756Z,2984.00
2022-07-29T08:13:57.727Z,2888.00
2022-07-29T08:14:57.712Z,2792.00
2022-07-29T08:15:57.712Z,2692.00
2022-07-29T08:16:57.705Z,2600.00
2022-07-29T08:17:57.670Z,2512.00
2022-07-29T08:18:57.664Z,2444.00
2022-07-29T08:19:57.652Z,2408.00
2022-07-29T08:20:57.669Z,2388.00
2022-07-29T08:21:57.641Z,2388.00
2022-07-29T08:22:57.622Z,2412.00
2022-07-29T08:24:00.662Z,2460.00
2022-07-29T08:24:58.581Z,2540.00
2022-07-29T08:25:57.586Z,2636.00
2022-07-29T08:26:57.554Z,2760.00
2022-07-29T08:27:57.543Z,2900.00
2022-07-29T08:28:57.547Z,3068.00
2022-07-29T08:29:57.514Z,3292.00
2022-07-29T08:30:57.512Z,3556.00
2022-07-29T08:31:57.525Z,3840.00
2022-07-29T08:32:57.519Z,4140.00
2022-07-29T08:33:57.512Z,4436.00
2022-07-29T08:34:57.452Z,4740.00
2022-07-29T08:35:57.462Z,5016.00
2022-07-29T08:36:57.422Z,5308.00
2022-07-29T08:37:57.409Z,5624.00
2022-07-29T08:38:57.402Z,5916.00
2022-07-29T08:39:57.403Z,6208.00
2022-07-29T08:40:57.422Z,6392.00
2022-07-29T08:41:57.764Z,6444.00
2022-07-29T08:42:57.340Z,6404.00
2022-07-29T08:43:57.322Z,6348.00
2022-07-29T08:44:57.312Z,6272.00
2022-07-29T08:45:57.349Z,6240.00
2022-07-29T08:46:57.285Z,6224.00
2022-07-29T08:47:57.272Z,6224.00
2022-07-29T08:48:57.286Z,6208.00
2022-07-29T08:49:57.244Z,6196.00
2022-07-29T08:50:57.255Z,6272.00
2022-07-29T08:51:57.519Z,6452.00
2022-07-29T08:52:59.867Z,6660.00
2022-07-29T08:53:57.193Z,6808.00
2022-07-29T08:54:57.181Z,6916.00
2022-07-29T08:55:57.183Z,7016.00
2022-07-29T08:56:57.172Z,7100.00
2022-07-29T08:57:57.419Z,7120.00
2022-07-29T08:58:57.133Z,7104.00
2022-07-29T08:59:57.123Z,7048.00
2022-07-29T09:00:58.150Z,6940.00
2022-07-29T09:01:57.343Z,6712.00
2022-07-29T09:02:57.081Z,6484.00
2022-07-29T09:03:57.092Z,6320.00
2022-07-29T09:04:57.053Z,6196.00
2022-07-29T09:05:57.042Z,6140.00
2022-07-29T09:06:57.023Z,6104.00
2022-07-29T09:07:57.012Z,6076.00
2022-07-29T09:08:57.001Z,6084.00
2022-07-29T09:09:56.980Z,6100.00
2022-07-29T09:10:56.984Z,6128.00
2022-07-29T09:11:57.417Z,6108.00
2022-07-29T09:12:56.946Z,6028.00
2022-07-29T09:13:56.924Z,5940.00
2022-07-29T09:14:56.935Z,5868.00
2022-07-29T09:15:56.942Z,5848.00
2022-07-29T09:16:56.961Z,5920.00
2022-07-29T09:17:56.874Z,6060.00
2022-07-29T09:18:56.872Z,6340.00
2022-07-29T09:19:56.852Z,6672.00
2022-07-29T09:20:56.889Z,7056.00
2022-07-29T09:21:56.832Z,7448.00
2022-07-29T09:22:56.836Z,7856.00
2022-07-29T09:23:56.794Z,8348.00
2022-07-29T09:24:56.801Z,8992.00
2022-07-29T09:25:56.783Z,9816.00
2022-07-29T09:26:56.916Z,10776.00
2022-07-29T09:27:56.747Z,11828.00
2022-07-29T09:28:56.754Z,12816.00
2022-07-29T09:29:56.735Z,13728.00
2022-07-29T09:30:56.731Z,14436.00
2022-07-29T09:31:56.750Z,14988.00
2022-07-29T09:32:56.694Z,15424.00
2022-07-29T09:33:56.692Z,14756.00
2022-07-29T09:34:58.486Z,13756.00
2022-07-29T09:35:57.148Z,12536.00
2022-07-29T09:36:57.095Z,11496.00
2022-07-29T09:37:56.614Z,10852.00
2022-07-29T09:38:56.604Z,10360.00
2022-07-29T09:39:56.583Z,10072.00
2022-07-29T09:40:56.583Z,9936.00
2022-07-29T09:41:56.574Z,9884.00
2022-07-29T09:42:56.561Z,9844.00
2022-07-29T09:43:56.534Z,9776.00
2022-07-29T09:44:56.525Z,9768.00
2022-07-29T09:45:56.513Z,9816.00
2022-07-29T09:46:56.858Z,9876.00
2022-07-29T09:47:56.511Z,9888.00
2022-07-29T09:48:56.528Z,9840.00
2022-07-29T09:49:56.455Z,9732.00
2022-07-29T09:50:56.463Z,9624.00
2022-07-29T09:51:56.444Z,9488.00
2022-07-29T09:52:56.422Z,9292.00
2022-07-29T09:53:56.414Z,9056.00
2022-07-29T09:54:56.395Z,8880.00
2022-07-29T09:55:56.384Z,8784.00
2022-07-29T09:56:56.639Z,8744.00
2022-07-29T09:57:56.447Z,8708.00
2022-07-29T09:58:56.334Z,8544.00
2022-07-29T09:59:56.325Z,8268.00
2022-07-29T10:00:56.360Z,7940.00
2022-07-29T10:01:56.570Z,7616.00
2022-07-29T10:02:56.314Z,7252.00
2022-07-29T10:03:56.274Z,6872.00
2022-07-29T10:04:56.256Z,6524.00
2022-07-29T10:05:56.257Z,6248.00
2022-07-29T10:07:03.539Z,6056.00
2022-07-29T10:07:57.584Z,5952.00
2022-07-29T10:08:56.224Z,5948.00
2022-07-29T10:09:56.223Z,6044.00
2022-07-29T10:10:56.197Z,6212.00
2022-07-29T10:11:56.185Z,6444.00
2022-07-29T10:12:56.155Z,6656.00
2022-07-29T10:13:56.144Z,6884.00
2022-07-29T10:14:56.125Z,7184.00
2022-07-29T10:15:56.170Z,7476.00
2022-07-29T10:16:56.104Z,7688.00
2022-07-29T10:17:56.085Z,7884.00
2022-07-29T10:18:56.075Z,7944.00
2022-07-29T10:19:56.068Z,7916.00
2022-07-29T10:20:56.046Z,7776.00
2022-07-29T10:21:58.126Z,7560.00
2022-07-29T10:22:56.024Z,7328.00
2022-07-29T10:23:56.015Z,7192.00
2022-07-29T10:24:57.001Z,7076.00
2022-07-29T10:25:55.996Z,6920.00
2022-07-29T10:26:55.986Z,6708.00
2022-07-29T10:27:55.991Z,6484.00
2022-07-29T10:28:55.947Z,6248.00
2022-07-29T10:29:55.937Z,5980.00
2022-07-29T10:30:55.947Z,5684.00
2022-07-29T10:31:56.181Z,5448.00
2022-07-29T10:32:55.921Z,5300.00
2022-07-29T10:33:55.901Z,5192.00
2022-07-29T10:34:55.865Z,5084.00
2022-07-29T10:35:55.865Z,5000.00
2022-07-29T10:36:55.856Z,4912.00
2022-07-29T10:37:55.836Z,4816.00
2022-07-29T10:38:55.815Z,4704.00
2022-07-29T10:39:55.806Z,4588.00
2022-07-29T10:40:57.275Z,4492.00
2022-07-29T10:41:55.969Z,4440.00
2022-07-29T10:42:55.768Z,4432.00
2022-07-29T10:44:52.188Z,4456.00
2022-07-29T10:45:52.620Z,4424.00
2022-07-29T10:46:52.303Z,4376.00
2022-07-29T10:47:52.149Z,4288.00
2022-07-29T10:48:52.157Z,4176.00
2022-07-29T10:49:52.127Z,4060.00
2022-07-29T10:50:52.118Z,3952.00
2022-07-29T10:51:52.109Z,3872.00
2022-07-29T10:52:52.078Z,3832.00
2022-07-29T10:53:52.072Z,3832.00
2022-07-29T10:54:52.049Z,3864.00
2022-07-29T10:55:52.049Z,3904.00
2022-07-29T10:56:52.055Z,3964.00
2022-07-29T10:57:53.926Z,4020.00
2022-07-29T10:58:52.723Z,4068.00
2022-07-29T10:59:53.034Z,4100.00
2022-07-29T11:00:51.972Z,4096.00
2022-07-29T11:01:52.709Z,4048.00
2022-07-29T11:02:52.041Z,4000.00
2022-07-29T11:03:52.341Z,3948.00
2022-07-29T11:04:51.927Z,3892.00
2022-07-29T11:05:51.917Z,3828.00
2022-07-29T11:06:51.909Z,3732.00
2022-07-29T11:07:51.888Z,3616.00
2022-07-29T11:08:51.870Z,3484.00
2022-07-29T11:09:51.873Z,3360.00
2022-07-29T11:10:51.849Z,3240.00
2022-07-29T11:11:51.863Z,3136.00
2022-07-29T11:12:51.821Z,3060.00
2022-07-29T11:13:52.374Z,3012.00
2022-07-29T11:14:51.789Z,2976.00
2022-07-29T11:15:51.778Z,2940.00
2022-07-29T11:16:51.779Z,2908.00
2022-07-29T11:17:53.064Z,2864.00
2022-07-29T11:18:51.775Z,2800.00
2022-07-29T11:19:52.271Z,2720.00
2022-07-29T11:20:51.718Z,2644.00
2022-07-29T11:21:55.079Z,2572.00
2022-07-29T11:22:51.678Z,2512.00
2022-07-29T11:23:51.679Z,2452.00
2022-07-29T11:24:51.697Z,2400.00
2022-07-29T11:25:52.389Z,2352.00
2022-07-29T11:26:51.649Z,2324.00
2022-07-29T11:27:51.629Z,2332.00
2022-07-29T11:28:51.608Z,2352.00
2022-07-29T11:29:51.603Z,2372.00
2022-07-29T11:30:51.579Z,2384.00
2022-07-29T11:31:51.568Z,2420.00
2022-07-29T11:32:51.568Z,2472.00
2022-07-29T11:33:56.125Z,2532.00
2022-07-29T11:34:52.526Z,2592.00
2022-07-29T11:36:00.765Z,2656.00
2022-07-29T11:36:52.507Z,2744.00
2022-07-29T11:37:52.780Z,2864.00
2022-07-29T11:38:52.469Z,3004.00
2022-07-29T11:39:51.531Z,3140.00
2022-07-29T11:40:51.447Z,3316.00
2022-07-29T11:41:51.438Z,3532.00
2022-07-29T11:42:51.888Z,3716.00
2022-07-29T11:43:51.408Z,3888.00
2022-07-29T11:44:51.394Z,4068.00
2022-07-29T11:45:51.413Z,4256.00
2022-07-29T11:46:51.367Z,4396.00
2022-07-29T11:47:51.431Z,4456.00
2022-07-29T11:48:52.061Z,4504.00
2022-07-29T11:49:51.329Z,4572.00
2022-07-29T11:50:51.308Z,4616.00
2022-07-29T11:51:51.307Z,4652.00
2022-07-29T11:52:51.307Z,4664.00
2022-07-29T11:53:52.461Z,4576.00
2022-07-29T11:54:58.389Z,4420.00
2022-07-29T11:55:52.248Z,4268.00
2022-07-29T11:56:51.230Z,4160.00
2022-07-29T11:58:03.760Z,4132.00
2022-07-29T11:58:52.208Z,4152.00
2022-07-29T11:59:51.196Z,4216.00
2022-07-29T12:00:51.179Z,4264.00
2022-07-29T12:01:51.169Z,4332.00
2022-07-29T12:02:51.159Z,4464.00
2022-07-29T12:03:51.220Z,4624.00
2022-07-29T12:04:51.149Z,4860.00
2022-07-29T12:06:52.098Z,5512.00
2022-07-29T12:07:03.218Z,5172.00
2022-07-29T12:07:51.100Z,5908.00
2022-07-29T12:08:51.070Z,6352.00
2022-07-29T12:09:51.067Z,6776.00
2022-07-29T12:10:51.047Z,7240.00
2022-07-29T12:11:51.040Z,7736.00
2022-07-29T12:12:51.054Z,8232.00
2022-07-29T12:13:51.018Z,8692.00
2022-07-29T12:14:50.988Z,8976.00
2022-07-29T12:15:51.017Z,9024.00
2022-07-29T12:16:51.054Z,8924.00
2022-07-29T12:17:50.978Z,8888.00
2022-07-29T12:18:50.939Z,8996.00
2022-07-29T12:19:51.038Z,9300.00
2022-07-29T12:20:50.919Z,9716.00
2022-07-29T12:21:56.293Z,10272.00
2022-07-29T12:22:51.909Z,10912.00
2022-07-29T12:23:50.879Z,11600.00
2022-07-29T12:24:50.861Z,12376.00
2022-07-29T12:25:51.860Z,13156.00
2022-07-29T12:26:50.840Z,13432.00
2022-07-29T12:27:50.843Z,13620.00
2022-07-29T12:28:50.809Z,13804.00
2022-07-29T12:29:50.800Z,13904.00
2022-07-29T12:30:51.624Z,13836.00
2022-07-29T12:31:50.808Z,13668.00
2022-07-29T12:32:50.761Z,13344.00
2022-07-29T12:33:50.772Z,12976.00
2022-07-29T12:34:50.733Z,12740.00
2022-07-29T12:36:06.263Z,12576.00
2022-07-29T12:36:51.710Z,12476.00
2022-07-29T12:37:50.702Z,12432.00
2022-07-29T12:38:50.693Z,12424.00
2022-07-29T12:39:50.715Z,12520.00
2022-07-29T12:40:50.652Z,12800.00
2022-07-29T12:41:50.653Z,13096.00
2022-07-29T12:42:50.631Z,13324.00
2022-07-29T12:43:50.622Z,13444.00
2022-07-29T12:44:50.598Z,13364.00
2022-07-29T12:45:50.591Z,13308.00
2022-07-29T12:46:50.613Z,13272.00
2022-07-29T12:47:50.561Z,13152.00
2022-07-29T12:48:50.635Z,13080.00
2022-07-29T12:49:50.546Z,13080.00
2022-07-29T12:50:50.520Z,13064.00
2022-07-29T12:51:50.510Z,13040.00
2022-07-29T12:52:50.491Z,13056.00
2022-07-29T12:53:50.499Z,13064.00
2022-07-29T12:54:50.501Z,13196.00
2022-07-29T12:55:50.451Z,13532.00
2022-07-29T12:56:50.441Z,13932.00
2022-07-29T12:57:50.433Z,14508.00
2022-07-29T12:58:51.457Z,15168.00
2022-07-29T12:59:50.402Z,15936.00
2022-07-29T13:00:50.432Z,16672.00
2022-07-29T13:01:50.573Z,17472.00
2022-07-29T13:02:50.405Z,18208.00
2022-07-29T13:03:56.917Z,18912.00
2022-07-29T13:04:51.333Z,19712.00
2022-07-29T13:05:50.332Z,20576.00
2022-07-29T13:06:51.071Z,22048.00
2022-07-29T13:07:55.111Z,23904.00
2022-07-29T13:08:51.293Z,30496.00
2022-07-29T13:09:50.273Z,32960.00
2022-07-29T13:10:50.253Z,51648.00
2022-07-29T13:11:50.250Z,54400.00
2022-07-29T13:12:50.232Z,50464.00
2022-07-29T13:13:50.234Z,45280.00
2022-07-29T13:14:51.204Z,34560.00
2022-07-29T13:15:50.194Z,46528.00
2022-07-29T13:16:50.212Z,36224.00
2022-07-29T13:17:50.172Z,61024.00
2022-07-29T13:18:50.164Z,61184.00
2022-07-29T13:19:50.143Z,26592.00
2022-07-29T13:20:50.131Z,56320.00
2022-07-29T13:21:50.123Z,57248.00
2022-07-29T13:22:50.103Z,26592.00
2022-07-29T13:23:50.104Z,44384.00
2022-07-29T13:24:50.074Z,44832.00
2022-07-29T13:25:50.065Z,24096.00
2022-07-29T13:26:50.053Z,26176.00
2022-07-29T13:27:50.054Z,31712.00
2022-07-29T13:28:50.035Z,33536.00
2022-07-29T13:29:50.016Z,30880.00
2022-07-29T13:30:50.026Z,28608.00
2022-07-29T13:31:49.998Z,27904.00
2022-07-29T13:32:49.976Z,28256.00
2022-07-29T13:33:49.975Z,28512.00
2022-07-29T13:34:49.957Z,29408.00
2022-07-29T13:35:49.946Z,32192.00
2022-07-29T13:36:49.926Z,38432.00
2022-07-29T13:37:49.917Z,44544.00
2022-07-29T13:38:49.918Z,47040.00
2022-07-29T13:39:51.292Z,50624.00
2022-07-29T13:40:49.877Z,48160.00
2022-07-29T13:41:49.867Z,51968.00
2022-07-29T13:42:49.858Z,35904.00
2022-07-29T13:43:50.125Z,47232.00
2022-07-29T13:44:49.848Z,51104.00
2022-07-29T13:45:49.855Z,29792.00
2022-07-29T13:46:49.800Z,34720.00
2022-07-29T13:47:49.788Z,27552.00
2022-07-29T13:48:49.788Z,53824.00
2022-07-29T13:49:49.787Z,47072.00
2022-07-29T13:50:49.748Z,44608.00
2022-07-29T13:51:49.770Z,49760.00
2022-07-29T13:52:49.770Z,48064.00
2022-07-29T13:53:49.719Z,45280.00
2022-07-29T13:54:49.709Z,43808.00
2022-07-29T13:55:49.689Z,44832.00
2022-07-29T13:56:49.679Z,43776.00
2022-07-29T13:57:49.672Z,45120.00
2022-07-29T13:58:49.660Z,40960.00
2022-07-29T13:59:53.920Z,44352.00
2022-07-29T14:00:49.717Z,44768.00
2022-07-29T14:01:49.620Z,43424.00
2022-07-29T14:02:49.601Z,21664.00
2022-07-29T14:03:49.590Z,35680.00
2022-07-29T14:04:49.626Z,44128.00
2022-07-29T14:05:49.571Z,21728.00
2022-07-29T14:06:49.552Z,17760.00
2022-07-29T14:07:49.541Z,14976.00
2022-07-29T14:08:49.521Z,14084.00
2022-07-29T14:09:49.531Z,13556.00
2022-07-29T14:10:49.503Z,14068.00
2022-07-29T14:11:49.493Z,13208.00
2022-07-29T14:12:49.509Z,13408.00
2022-07-29T14:13:49.471Z,13768.00
2022-07-29T14:14:49.470Z,14128.00
2022-07-29T14:15:49.442Z,14560.00
2022-07-29T14:16:52.359Z,15068.00
2022-07-29T14:17:49.412Z,15776.00
2022-07-29T14:18:49.462Z,16352.00
2022-07-29T14:19:49.401Z,17152.00
2022-07-29T14:20:49.373Z,18112.00
2022-07-29T14:21:49.363Z,19808.00
2022-07-29T14:22:49.343Z,21536.00
2022-07-29T14:23:49.347Z,22784.00
2022-07-29T14:24:49.335Z,23232.00
2022-07-29T14:25:49.609Z,24896.00
2022-07-29T14:26:49.327Z,26080.00
2022-07-29T14:27:49.283Z,25664.00
2022-07-29T14:28:49.275Z,28864.00
2022-07-29T14:29:49.281Z,25664.00
2022-07-29T14:30:49.246Z,28160.00
2022-07-29T14:31:49.295Z,42336.00
2022-07-29T14:32:49.223Z,43072.00
2022-07-29T14:33:49.483Z,43424.00
2022-07-29T14:34:49.213Z,41248.00
2022-07-29T14:35:49.186Z,38688.00
2022-07-29T14:36:49.184Z,35104.00
2022-07-29T14:37:49.165Z,33888.00
2022-07-29T14:38:49.147Z,26528.00
2022-07-29T14:39:49.146Z,28128.00
2022-07-29T14:40:50.865Z,32256.00
2022-07-29T14:41:49.114Z,31072.00
2022-07-29T14:42:49.094Z,34336.00
2022-07-29T14:43:49.086Z,36512.00
2022-07-29T14:44:49.076Z,35840.00
2022-07-29T14:45:49.122Z,37152.00
2022-07-29T14:46:49.483Z,37664.00
2022-07-29T14:47:49.039Z,31072.00
2022-07-29T14:48:49.056Z,35744.00
2022-07-29T14:49:49.025Z,39968.00
2022-07-29T14:50:48.996Z,38848.00
2022-07-29T14:51:48.987Z,43232.00
2022-07-29T14:52:48.967Z,45184.00
2022-07-29T14:53:48.957Z,42816.00
2022-07-29T14:54:48.957Z,42912.00
2022-07-29T14:55:48.938Z,43392.00
2022-07-29T14:56:48.918Z,38720.00
2022-07-29T14:57:48.909Z,38048.00
2022-07-29T14:58:51.713Z,38432.00
2022-07-29T14:59:48.899Z,29152.00
2022-07-29T15:00:48.944Z,33824.00
2022-07-29T15:01:48.859Z,29696.00
2022-07-29T15:03:04.216Z,30016.00
2022-07-29T15:03:49.837Z,24288.00
2022-07-29T15:04:48.821Z,26176.00
2022-07-29T15:05:48.819Z,34816.00
2022-07-29T15:06:48.791Z,44256.00
2022-07-29T15:07:48.779Z,45856.00
2022-07-29T15:08:48.767Z,50016.00
2022-07-29T15:09:49.776Z,44864.00
2022-07-29T15:10:48.760Z,32736.00
2022-07-29T15:11:48.733Z,36672.00
2022-07-29T15:12:48.720Z,36224.00
2022-07-29T15:13:48.712Z,43168.00
2022-07-29T15:14:48.694Z,46592.00
2022-07-29T15:15:48.698Z,55200.00
2022-07-29T15:16:48.719Z,50816.00
2022-07-29T15:17:48.661Z,51424.00
2022-07-29T15:18:48.641Z,52960.00
2022-07-29T15:19:48.634Z,38752.00
2022-07-29T15:20:48.621Z,39168.00
2022-07-29T15:21:49.195Z,48352.00
2022-07-29T15:22:48.592Z,47456.00
2022-07-29T15:23:48.585Z,48352.00
2022-07-29T15:24:48.573Z,40896.00
2022-07-29T15:25:48.572Z,48000.00
2022-07-29T15:26:48.544Z,43232.00
2022-07-29T15:27:49.702Z,47008.00
2022-07-29T15:28:48.523Z,49856.00
2022-07-29T15:29:48.513Z,48448.00
2022-07-29T15:30:48.512Z,56416.00
2022-07-29T15:31:48.605Z,53504.00
2022-07-29T15:32:48.473Z,46976.00
2022-07-29T15:33:49.466Z,51744.00
2022-07-29T15:34:48.453Z,44736.00
2022-07-29T15:35:48.445Z,52128.00
2022-07-29T15:36:53.078Z,50624.00
2022-07-29T15:37:49.684Z,48672.00
2022-07-29T15:38:48.395Z,47328.00
2022-07-29T15:39:48.384Z,38176.00
2022-07-29T15:40:48.382Z,39680.00
2022-07-29T15:41:48.366Z,42336.00
2022-07-29T15:42:48.343Z,44352.00
2022-07-29T15:43:48.334Z,49440.00
2022-07-29T15:44:48.316Z,47168.00
2022-07-29T15:45:48.338Z,40736.00
2022-07-29T15:46:48.295Z,46656.00
2022-07-29T15:47:48.286Z,45120.00
2022-07-29T15:48:48.422Z,46080.00
2022-07-29T15:49:49.464Z,43168.00
2022-07-29T15:50:48.256Z,38592.00
2022-07-29T15:51:48.237Z,36064.00
2022-07-29T15:52:48.216Z,39200.00
2022-07-29T15:53:53.226Z,35648.00
2022-07-29T15:54:49.188Z,35936.00
2022-07-29T15:55:48.197Z,36032.00
2022-07-29T15:56:48.187Z,33728.00
2022-07-29T15:57:48.157Z,33696.00
2022-07-29T15:58:48.215Z,33504.00
2022-07-29T15:59:48.136Z,34624.00
2022-07-29T16:00:48.188Z,29536.00
2022-07-29T16:01:48.109Z,34272.00
2022-07-29T16:02:48.089Z,33088.00
2022-07-29T16:03:48.116Z,37344.00
2022-07-29T16:04:48.067Z,41920.00
2022-07-29T16:05:48.068Z,43616.00
2022-07-29T16:06:48.039Z,44960.00
2022-07-29T16:07:48.037Z,42752.00
2022-07-29T16:08:48.019Z,40352.00
2022-07-29T16:09:52.843Z,38304.00
2022-07-29T16:10:49.009Z,28000.00
2022-07-29T16:11:47.989Z,13032.00
2022-07-29T16:12:47.970Z,12680.00
2022-07-29T16:13:47.961Z,9712.00
2022-07-29T16:14:48.008Z,9560.00
2022-07-29T16:16:02.366Z,9176.00
2022-07-29T16:16:48.954Z,8824.00
2022-07-29T16:17:47.910Z,8556.00
2022-07-29T16:18:47.894Z,8356.00
2022-07-29T16:19:47.881Z,8172.00
2022-07-29T16:20:47.888Z,7988.00
2022-07-29T16:21:47.871Z,7868.00
2022-07-29T16:22:47.843Z,7804.00
2022-07-29T16:23:47.832Z,7848.00
2022-07-29T16:24:47.820Z,8004.00
2022-07-29T16:25:59.800Z,8276.00
2022-07-29T16:26:48.802Z,8620.00
2022-07-29T16:27:47.781Z,8984.00
2022-07-29T16:28:47.773Z,9612.00
2022-07-29T16:29:47.752Z,9704.00
2022-07-29T16:30:47.743Z,9964.00